Eller, North Carolina
Current Conditions -  °F | °C
As of 12:54 PM on Saturday 20 Dec 2014 (Local Time) from KINT Reporting Station
Overcast Overcast  
Wind Chill: 37°   Ceiling: 4500
Heat Index: 37°   Visibility: 10mi
Dew Point: 29°   Wind: 3mph
Humidity: 73%   Direction: 70°ENE
Pressure: 30.24"   Gusts: NA
Location:  36.0182°N, 80.183°W
Report Text: KINT 201754Z 07003KT 10SM BKN045 OVC060 03/M02 A3024 RMK AO2 SLP243 60000 T00281017 10033 20006 58012
Loading
Personal Weather Stations






























Interactive Weather Map New forecast layout! Learn more

10-Day Weather Forecast

Advertisements
Track Severe Weather on mobile